sensor_id;sensor_type;location;lat;lon;timestamp;P1;durP1;ratioP1;P2;durP2;ratioP2
3683;SDS011;1858;48.716;9.648;2023-07-02T00:00:52;1.70;;;1.10;;
3683;SDS011;1858;48.716;9.648;2023-07-02T00:03:21;2.50;;;1.20;;
3683;SDS011;1858;48.716;9.648;2023-07-02T00:05:50;1.73;;;1.23;;
3683;SDS011;1858;48.716;9.648;2023-07-02T00:08:23;2.40;;;1.17;;
3683;SDS011;1858;48.716;9.648;2023-07-02T00:10:51;1.80;;;1.07;;
3683;SDS011;1858;48.716;9.648;2023-07-02T00:13:19;2.73;;;1.53;;
3683;SDS011;1858;48.716;9.648;2023-07-02T00:15:48;2.13;;;1.40;;
3683;SDS011;1858;48.716;9.648;2023-07-02T00:18:16;3.87;;;1.73;;
3683;SDS011;1858;48.716;9.648;2023-07-02T00:20:44;4.97;;;1.93;;
3683;SDS011;1858;48.716;9.648;2023-07-02T00:23:13;4.50;;;2.00;;
3683;SDS011;1858;48.716;9.648;2023-07-02T00:25:41;2.97;;;1.30;;
3683;SDS011;1858;48.716;9.648;2023-07-02T00:28:10;2.77;;;1.60;;
3683;SDS011;1858;48.716;9.648;2023-07-02T00:30:38;4.67;;;1.90;;
3683;SDS011;1858;48.716;9.648;2023-07-02T00:33:06;2.27;;;1.30;;
3683;SDS011;1858;48.716;9.648;2023-07-02T00:35:35;2.13;;;1.47;;
3683;SDS011;1858;48.716;9.648;2023-07-02T00:38:03;2.80;;;1.90;;
3683;SDS011;1858;48.716;9.648;2023-07-02T00:40:31;3.73;;;1.00;;
3683;SDS011;1858;48.716;9.648;2023-07-02T00:43:00;2.90;;;1.93;;
3683;SDS011;1858;48.716;9.648;2023-07-02T00:45:28;4.33;;;2.03;;
3683;SDS011;1858;48.716;9.648;2023-07-02T00:47:58;3.27;;;1.70;;
3683;SDS011;1858;48.716;9.648;2023-07-02T00:50:26;3.10;;;1.67;;
3683;SDS011;1858;48.716;9.648;2023-07-02T00:52:55;3.30;;;2.13;;
3683;SDS011;1858;48.716;9.648;2023-07-02T00:55:24;3.23;;;2.00;;
3683;SDS011;1858;48.716;9.648;2023-07-02T00:57:52;3.77;;;2.07;;
3683;SDS011;1858;48.716;9.648;2023-07-02T01:00:22;4.50;;;1.60;;
3683;SDS011;1858;48.716;9.648;2023-07-02T01:02:54;1.87;;;1.40;;
3683;SDS011;1858;48.716;9.648;2023-07-02T01:05:26;1.90;;;1.40;;
3683;SDS011;1858;48.716;9.648;2023-07-02T01:08:00;3.67;;;1.40;;
3683;SDS011;1858;48.716;9.648;2023-07-02T01:10:51;2.17;;;1.30;;
3683;SDS011;1858;48.716;9.648;2023-07-02T01:13:21;2.00;;;1.27;;
3683;SDS011;1858;48.716;9.648;2023-07-02T01:15:51;2.60;;;1.53;;
3683;SDS011;1858;48.716;9.648;2023-07-02T01:18:20;3.50;;;1.87;;
3683;SDS011;1858;48.716;9.648;2023-07-02T01:20:49;2.87;;;2.13;;
3683;SDS011;1858;48.716;9.648;2023-07-02T01:23:20;2.40;;;1.47;;
3683;SDS011;1858;48.716;9.648;2023-07-02T01:25:51;1.93;;;1.40;;
3683;SDS011;1858;48.716;9.648;2023-07-02T01:28:19;3.50;;;2.10;;
3683;SDS011;1858;48.716;9.648;2023-07-02T01:30:49;2.50;;;1.40;;
3683;SDS011;1858;48.716;9.648;2023-07-02T01:33:17;4.50;;;1.97;;
3683;SDS011;1858;48.716;9.648;2023-07-02T01:35:46;2.23;;;1.67;;
3683;SDS011;1858;48.716;9.648;2023-07-02T01:38:14;2.40;;;1.70;;
3683;SDS011;1858;48.716;9.648;2023-07-02T01:40:42;2.53;;;1.60;;
3683;SDS011;1858;48.716;9.648;2023-07-02T01:43:11;3.27;;;1.97;;
3683;SDS011;1858;48.716;9.648;2023-07-02T01:45:41;4.67;;;1.57;;
3683;SDS011;1858;48.716;9.648;2023-07-02T01:48:09;3.00;;;2.03;;
3683;SDS011;1858;48.716;9.648;2023-07-02T01:50:38;2.40;;;1.37;;
3683;SDS011;1858;48.716;9.648;2023-07-02T01:55:54;3.33;;;1.90;;
3683;SDS011;1858;48.716;9.648;2023-07-02T01:58:22;2.53;;;1.67;;
3683;SDS011;1858;48.716;9.648;2023-07-02T02:00:51;3.07;;;1.80;;
3683;SDS011;1858;48.716;9.648;2023-07-02T02:03:19;2.50;;;1.50;;
3683;SDS011;1858;48.716;9.648;2023-07-02T02:05:47;3.47;;;1.53;;
3683;SDS011;1858;48.716;9.648;2023-07-02T02:08:16;2.20;;;1.60;;
3683;SDS011;1858;48.716;9.648;2023-07-02T02:10:44;2.60;;;1.90;;
3683;SDS011;1858;48.716;9.648;2023-07-02T02:13:13;3.27;;;2.30;;
3683;SDS011;1858;48.716;9.648;2023-07-02T02:15:41;3.60;;;1.93;;
3683;SDS011;1858;48.716;9.648;2023-07-02T02:18:09;5.97;;;2.00;;
3683;SDS011;1858;48.716;9.648;2023-07-02T02:20:38;2.33;;;2.07;;
3683;SDS011;1858;48.716;9.648;2023-07-02T02:23:07;4.17;;;2.30;;
3683;SDS011;1858;48.716;9.648;2023-07-02T02:25:35;2.07;;;1.50;;
3683;SDS011;1858;48.716;9.648;2023-07-02T02:28:04;2.20;;;1.33;;
3683;SDS011;1858;48.716;9.648;2023-07-02T02:30:32;3.50;;;1.77;;
3683;SDS011;1858;48.716;9.648;2023-07-02T02:33:00;2.30;;;1.50;;
3683;SDS011;1858;48.716;9.648;2023-07-02T02:35:29;2.30;;;1.20;;
3683;SDS011;1858;48.716;9.648;2023-07-02T02:37:57;2.70;;;2.30;;
3683;SDS011;1858;48.716;9.648;2023-07-02T02:40:27;2.53;;;1.60;;
3683;SDS011;1858;48.716;9.648;2023-07-02T02:42:55;2.60;;;1.37;;
3683;SDS011;1858;48.716;9.648;2023-07-02T02:48:12;2.83;;;1.80;;
3683;SDS011;1858;48.716;9.648;2023-07-02T02:50:40;6.33;;;1.90;;
3683;SDS011;1858;48.716;9.648;2023-07-02T02:53:10;3.00;;;1.73;;
3683;SDS011;1858;48.716;9.648;2023-07-02T02:55:38;4.87;;;2.10;;
3683;SDS011;1858;48.716;9.648;2023-07-02T02:58:07;2.90;;;2.00;;
3683;SDS011;1858;48.716;9.648;2023-07-02T03:00:35;3.70;;;2.70;;
3683;SDS011;1858;48.716;9.648;2023-07-02T03:03:04;3.50;;;1.90;;
3683;SDS011;1858;48.716;9.648;2023-07-02T03:05:33;3.00;;;1.67;;
3683;SDS011;1858;48.716;9.648;2023-07-02T03:08:01;2.30;;;2.00;;
3683;SDS011;1858;48.716;9.648;2023-07-02T03:10:30;4.90;;;2.37;;
3683;SDS011;1858;48.716;9.648;2023-07-02T03:12:59;2.93;;;1.67;;
3683;SDS011;1858;48.716;9.648;2023-07-02T03:15:27;2.70;;;1.73;;
3683;SDS011;1858;48.716;9.648;2023-07-02T03:17:56;2.77;;;2.00;;
3683;SDS011;1858;48.716;9.648;2023-07-02T03:20:24;2.23;;;1.87;;
3683;SDS011;1858;48.716;9.648;2023-07-02T03:22:52;3.90;;;2.50;;
3683;SDS011;1858;48.716;9.648;2023-07-02T03:25:21;3.00;;;2.17;;
3683;SDS011;1858;48.716;9.648;2023-07-02T03:27:49;5.50;;;1.87;;
3683;SDS011;1858;48.716;9.648;2023-07-02T03:30:17;3.37;;;2.57;;
3683;SDS011;1858;48.716;9.648;2023-07-02T03:35:35;4.57;;;2.40;;
3683;SDS011;1858;48.716;9.648;2023-07-02T03:40:51;2.57;;;2.07;;
3683;SDS011;1858;48.716;9.648;2023-07-02T03:43:20;3.50;;;2.40;;
3683;SDS011;1858;48.716;9.648;2023-07-02T03:45:48;3.50;;;2.63;;
3683;SDS011;1858;48.716;9.648;2023-07-02T03:48:16;9.23;;;2.60;;
3683;SDS011;1858;48.716;9.648;2023-07-02T03:50:45;3.33;;;2.20;;
3683;SDS011;1858;48.716;9.648;2023-07-02T03:53:13;3.80;;;2.57;;
3683;SDS011;1858;48.716;9.648;2023-07-02T03:55:42;3.63;;;2.00;;
3683;SDS011;1858;48.716;9.648;2023-07-02T03:58:10;3.77;;;2.40;;
3683;SDS011;1858;48.716;9.648;2023-07-02T04:03:15;9.50;;;2.50;;
3683;SDS011;1858;48.716;9.648;2023-07-02T04:05:44;3.77;;;1.83;;
3683;SDS011;1858;48.716;9.648;2023-07-02T04:08:13;4.00;;;2.10;;
3683;SDS011;1858;48.716;9.648;2023-07-02T04:10:42;7.00;;;3.00;;
3683;SDS011;1858;48.716;9.648;2023-07-02T04:13:10;4.00;;;2.00;;
3683;SDS011;1858;48.716;9.648;2023-07-02T04:15:39;2.77;;;2.10;;
3683;SDS011;1858;48.716;9.648;2023-07-02T04:18:07;3.00;;;2.07;;
3683;SDS011;1858;48.716;9.648;2023-07-02T04:20:36;2.63;;;1.70;;
3683;SDS011;1858;48.716;9.648;2023-07-02T04:23:08;3.97;;;2.00;;
3683;SDS011;1858;48.716;9.648;2023-07-02T04:25:36;2.90;;;2.00;;
3683;SDS011;1858;48.716;9.648;2023-07-02T04:28:05;5.43;;;2.07;;
3683;SDS011;1858;48.716;9.648;2023-07-02T04:30:33;2.70;;;1.70;;
3683;SDS011;1858;48.716;9.648;2023-07-02T04:33:01;3.23;;;2.20;;
3683;SDS011;1858;48.716;9.648;2023-07-02T04:38:19;3.83;;;1.67;;
3683;SDS011;1858;48.716;9.648;2023-07-02T04:40:47;3.00;;;1.83;;
3683;SDS011;1858;48.716;9.648;2023-07-02T04:43:17;5.00;;;1.90;;
3683;SDS011;1858;48.716;9.648;2023-07-02T04:45:46;3.70;;;2.00;;
3683;SDS011;1858;48.716;9.648;2023-07-02T04:48:15;1.87;;;1.50;;
3683;SDS011;1858;48.716;9.648;2023-07-02T04:50:43;3.40;;;1.70;;
3683;SDS011;1858;48.716;9.648;2023-07-02T04:53:12;2.53;;;1.23;;
3683;SDS011;1858;48.716;9.648;2023-07-02T04:55:40;2.60;;;1.70;;
3683;SDS011;1858;48.716;9.648;2023-07-02T04:58:09;4.73;;;2.30;;
3683;SDS011;1858;48.716;9.648;2023-07-02T05:00:37;3.80;;;1.20;;
3683;SDS011;1858;48.716;9.648;2023-07-02T05:05:54;4.90;;;2.37;;
3683;SDS011;1858;48.716;9.648;2023-07-02T05:08:22;7.40;;;2.10;;
3683;SDS011;1858;48.716;9.648;2023-07-02T05:10:50;5.07;;;2.20;;
3683;SDS011;1858;48.716;9.648;2023-07-02T05:13:19;3.63;;;2.23;;
3683;SDS011;1858;48.716;9.648;2023-07-02T05:15:47;5.20;;;3.00;;
3683;SDS011;1858;48.716;9.648;2023-07-02T05:18:15;5.10;;;2.43;;
3683;SDS011;1858;48.716;9.648;2023-07-02T05:20:44;4.73;;;2.50;;
3683;SDS011;1858;48.716;9.648;2023-07-02T05:23:13;2.37;;;1.63;;
3683;SDS011;1858;48.716;9.648;2023-07-02T05:25:41;4.77;;;2.47;;
3683;SDS011;1858;48.716;9.648;2023-07-02T05:28:09;3.13;;;2.00;;
3683;SDS011;1858;48.716;9.648;2023-07-02T05:30:38;3.40;;;2.40;;
3683;SDS011;1858;48.716;9.648;2023-07-02T05:33:06;2.97;;;2.27;;
3683;SDS011;1858;48.716;9.648;2023-07-02T05:38:22;4.17;;;2.20;;
3683;SDS011;1858;48.716;9.648;2023-07-02T05:40:51;3.90;;;2.00;;
3683;SDS011;1858;48.716;9.648;2023-07-02T05:43:19;3.50;;;2.00;;
3683;SDS011;1858;48.716;9.648;2023-07-02T05:45:49;7.80;;;2.50;;
3683;SDS011;1858;48.716;9.648;2023-07-02T05:48:19;5.30;;;2.60;;
3683;SDS011;1858;48.716;9.648;2023-07-02T05:50:47;4.00;;;1.97;;
3683;SDS011;1858;48.716;9.648;2023-07-02T05:53:15;5.30;;;2.57;;
3683;SDS011;1858;48.716;9.648;2023-07-02T05:58:32;7.03;;;2.67;;
3683;SDS011;1858;48.716;9.648;2023-07-02T06:01:00;3.57;;;1.83;;
3683;SDS011;1858;48.716;9.648;2023-07-02T06:03:28;3.47;;;2.23;;
3683;SDS011;1858;48.716;9.648;2023-07-02T06:05:57;5.90;;;2.30;;
3683;SDS011;1858;48.716;9.648;2023-07-02T06:08:25;2.90;;;1.70;;
3683;SDS011;1858;48.716;9.648;2023-07-02T06:10:54;3.10;;;1.33;;
3683;SDS011;1858;48.716;9.648;2023-07-02T06:13:22;3.13;;;2.00;;
3683;SDS011;1858;48.716;9.648;2023-07-02T06:15:51;2.50;;;1.40;;
3683;SDS011;1858;48.716;9.648;2023-07-02T06:18:19;3.70;;;1.93;;
3683;SDS011;1858;48.716;9.648;2023-07-02T06:20:47;4.10;;;1.80;;
3683;SDS011;1858;48.716;9.648;2023-07-02T06:23:16;4.07;;;2.10;;
3683;SDS011;1858;48.716;9.648;2023-07-02T06:25:44;2.80;;;1.70;;
3683;SDS011;1858;48.716;9.648;2023-07-02T06:28:13;4.33;;;2.30;;
3683;SDS011;1858;48.716;9.648;2023-07-02T06:30:41;2.37;;;1.53;;
3683;SDS011;1858;48.716;9.648;2023-07-02T06:33:09;3.23;;;1.90;;
3683;SDS011;1858;48.716;9.648;2023-07-02T06:35:38;2.80;;;1.57;;
3683;SDS011;1858;48.716;9.648;2023-07-02T06:38:06;2.63;;;1.40;;
3683;SDS011;1858;48.716;9.648;2023-07-02T06:40:34;4.80;;;2.77;;
3683;SDS011;1858;48.716;9.648;2023-07-02T06:43:03;3.30;;;2.10;;
3683;SDS011;1858;48.716;9.648;2023-07-02T06:45:31;3.87;;;1.70;;
3683;SDS011;1858;48.716;9.648;2023-07-02T06:47:59;3.73;;;2.00;;
3683;SDS011;1858;48.716;9.648;2023-07-02T06:50:28;7.47;;;2.30;;
3683;SDS011;1858;48.716;9.648;2023-07-02T06:52:56;4.17;;;1.80;;
3683;SDS011;1858;48.716;9.648;2023-07-02T06:55:25;5.83;;;2.93;;
3683;SDS011;1858;48.716;9.648;2023-07-02T06:57:53;5.83;;;2.60;;
3683;SDS011;1858;48.716;9.648;2023-07-02T07:00:21;4.63;;;2.23;;
3683;SDS011;1858;48.716;9.648;2023-07-02T07:02:50;6.27;;;2.60;;
3683;SDS011;1858;48.716;9.648;2023-07-02T07:05:18;8.83;;;2.93;;
3683;SDS011;1858;48.716;9.648;2023-07-02T07:07:47;8.20;;;2.87;;
3683;SDS011;1858;48.716;9.648;2023-07-02T07:10:16;6.57;;;2.27;;
3683;SDS011;1858;48.716;9.648;2023-07-02T07:12:46;7.03;;;3.00;;
3683;SDS011;1858;48.716;9.648;2023-07-02T07:15:14;5.33;;;2.90;;
3683;SDS011;1858;48.716;9.648;2023-07-02T07:17:43;4.20;;;2.37;;
3683;SDS011;1858;48.716;9.648;2023-07-02T07:20:11;7.27;;;3.27;;
3683;SDS011;1858;48.716;9.648;2023-07-02T07:22:40;4.97;;;2.90;;
3683;SDS011;1858;48.716;9.648;2023-07-02T07:25:09;5.90;;;3.37;;
3683;SDS011;1858;48.716;9.648;2023-07-02T07:27:37;10.30;;;3.53;;
3683;SDS011;1858;48.716;9.648;2023-07-02T07:30:06;7.77;;;4.00;;
3683;SDS011;1858;48.716;9.648;2023-07-02T07:32:41;8.00;;;5.03;;
3683;SDS011;1858;48.716;9.648;2023-07-02T07:35:09;6.80;;;3.83;;
3683;SDS011;1858;48.716;9.648;2023-07-02T07:37:38;11.10;;;4.07;;
3683;SDS011;1858;48.716;9.648;2023-07-02T07:40:06;10.07;;;4.20;;
3683;SDS011;1858;48.716;9.648;2023-07-02T07:42:37;5.40;;;3.17;;
3683;SDS011;1858;48.716;9.648;2023-07-02T07:45:06;6.43;;;3.50;;
3683;SDS011;1858;48.716;9.648;2023-07-02T07:47:36;7.33;;;4.13;;
3683;SDS011;1858;48.716;9.648;2023-07-02T07:50:06;7.13;;;3.50;;
3683;SDS011;1858;48.716;9.648;2023-07-02T07:52:40;10.37;;;3.73;;
3683;SDS011;1858;48.716;9.648;2023-07-02T07:55:13;5.60;;;4.20;;
3683;SDS011;1858;48.716;9.648;2023-07-02T07:57:44;7.43;;;4.13;;
3683;SDS011;1858;48.716;9.648;2023-07-02T08:00:14;6.33;;;3.50;;
3683;SDS011;1858;48.716;9.648;2023-07-02T08:02:44;9.70;;;4.30;;
3683;SDS011;1858;48.716;9.648;2023-07-02T08:05:14;8.97;;;3.87;;
3683;SDS011;1858;48.716;9.648;2023-07-02T08:07:42;14.87;;;5.23;;
3683;SDS011;1858;48.716;9.648;2023-07-02T08:10:11;7.63;;;4.87;;
3683;SDS011;1858;48.716;9.648;2023-07-02T08:12:39;7.60;;;4.20;;
3683;SDS011;1858;48.716;9.648;2023-07-02T08:15:08;10.70;;;4.50;;
3683;SDS011;1858;48.716;9.648;2023-07-02T08:17:36;7.30;;;4.70;;
3683;SDS011;1858;48.716;9.648;2023-07-02T08:20:05;12.83;;;5.10;;
3683;SDS011;1858;48.716;9.648;2023-07-02T08:22:37;11.60;;;5.57;;
3683;SDS011;1858;48.716;9.648;2023-07-02T08:25:06;11.00;;;7.03;;
3683;SDS011;1858;48.716;9.648;2023-07-02T08:27:35;8.90;;;4.33;;
3683;SDS011;1858;48.716;9.648;2023-07-02T08:30:03;8.97;;;4.87;;
3683;SDS011;1858;48.716;9.648;2023-07-02T08:32:32;9.73;;;5.20;;
3683;SDS011;1858;48.716;9.648;2023-07-02T08:37:49;11.00;;;5.50;;
3683;SDS011;1858;48.716;9.648;2023-07-02T08:40:18;9.23;;;5.03;;
3683;SDS011;1858;48.716;9.648;2023-07-02T08:42:47;8.40;;;5.30;;
3683;SDS011;1858;48.716;9.648;2023-07-02T08:48:03;10.87;;;5.60;;
3683;SDS011;1858;48.716;9.648;2023-07-02T08:50:33;12.43;;;4.80;;
3683;SDS011;1858;48.716;9.648;2023-07-02T08:53:01;18.60;;;5.30;;
3683;SDS011;1858;48.716;9.648;2023-07-02T08:55:30;10.47;;;5.23;;
3683;SDS011;1858;48.716;9.648;2023-07-02T08:57:58;10.20;;;5.70;;
3683;SDS011;1858;48.716;9.648;2023-07-02T09:00:27;9.93;;;5.67;;
3683;SDS011;1858;48.716;9.648;2023-07-02T09:02:57;11.47;;;5.63;;
3683;SDS011;1858;48.716;9.648;2023-07-02T09:05:25;9.73;;;5.33;;
3683;SDS011;1858;48.716;9.648;2023-07-02T09:07:54;10.83;;;6.10;;
3683;SDS011;1858;48.716;9.648;2023-07-02T09:10:30;11.80;;;6.23;;
3683;SDS011;1858;48.716;9.648;2023-07-02T09:13:06;9.93;;;5.27;;
3683;SDS011;1858;48.716;9.648;2023-07-02T09:15:36;9.40;;;5.60;;
3683;SDS011;1858;48.716;9.648;2023-07-02T09:18:19;12.90;;;5.83;;
3683;SDS011;1858;48.716;9.648;2023-07-02T09:20:45;12.43;;;5.73;;
3683;SDS011;1858;48.716;9.648;2023-07-02T09:23:16;12.17;;;6.57;;
3683;SDS011;1858;48.716;9.648;2023-07-02T09:25:44;13.17;;;5.33;;
3683;SDS011;1858;48.716;9.648;2023-07-02T09:28:13;17.50;;;6.40;;
3683;SDS011;1858;48.716;9.648;2023-07-02T09:30:54;9.27;;;5.33;;
3683;SDS011;1858;48.716;9.648;2023-07-02T09:33:21;10.53;;;6.67;;
3683;SDS011;1858;48.716;9.648;2023-07-02T09:35:52;11.10;;;5.37;;
3683;SDS011;1858;48.716;9.648;2023-07-02T09:38:20;10.70;;;6.03;;
3683;SDS011;1858;48.716;9.648;2023-07-02T09:40:50;11.17;;;5.73;;
3683;SDS011;1858;48.716;9.648;2023-07-02T09:43:19;11.40;;;5.70;;
3683;SDS011;1858;48.716;9.648;2023-07-02T09:45:50;13.13;;;5.40;;
3683;SDS011;1858;48.716;9.648;2023-07-02T09:48:20;14.40;;;6.00;;
3683;SDS011;1858;48.716;9.648;2023-07-02T09:50:53;10.93;;;6.23;;
3683;SDS011;1858;48.716;9.648;2023-07-02T09:53:23;13.30;;;5.40;;
3683;SDS011;1858;48.716;9.648;2023-07-02T09:58:43;9.97;;;5.87;;
3683;SDS011;1858;48.716;9.648;2023-07-02T10:01:13;14.60;;;5.47;;
3683;SDS011;1858;48.716;9.648;2023-07-02T10:03:41;9.73;;;5.33;;
3683;SDS011;1858;48.716;9.648;2023-07-02T10:06:09;7.60;;;4.80;;
3683;SDS011;1858;48.716;9.648;2023-07-02T10:08:38;10.47;;;7.20;;
3683;SDS011;1858;48.716;9.648;2023-07-02T10:11:10;11.87;;;5.30;;
3683;SDS011;1858;48.716;9.648;2023-07-02T10:16:30;10.33;;;5.50;;
3683;SDS011;1858;48.716;9.648;2023-07-02T10:19:09;12.87;;;6.27;;
3683;SDS011;1858;48.716;9.648;2023-07-02T10:22:00;8.80;;;5.13;;
3683;SDS011;1858;48.716;9.648;2023-07-02T10:24:30;9.77;;;5.50;;
3683;SDS011;1858;48.716;9.648;2023-07-02T10:27:00;11.17;;;5.60;;
3683;SDS011;1858;48.716;9.648;2023-07-02T10:29:31;10.00;;;5.37;;
3683;SDS011;1858;48.716;9.648;2023-07-02T10:31:59;10.20;;;5.80;;
3683;SDS011;1858;48.716;9.648;2023-07-02T10:34:30;12.23;;;5.37;;
3683;SDS011;1858;48.716;9.648;2023-07-02T10:37:00;10.30;;;5.70;;
3683;SDS011;1858;48.716;9.648;2023-07-02T10:39:29;11.50;;;5.47;;
3683;SDS011;1858;48.716;9.648;2023-07-02T10:42:05;9.63;;;5.60;;
3683;SDS011;1858;48.716;9.648;2023-07-02T10:44:35;10.83;;;5.53;;
3683;SDS011;1858;48.716;9.648;2023-07-02T10:47:18;11.30;;;6.93;;
3683;SDS011;1858;48.716;9.648;2023-07-02T10:49:47;11.10;;;6.53;;
3683;SDS011;1858;48.716;9.648;2023-07-02T10:52:15;10.73;;;6.37;;
3683;SDS011;1858;48.716;9.648;2023-07-02T10:54:44;8.53;;;5.57;;
3683;SDS011;1858;48.716;9.648;2023-07-02T10:57:15;13.33;;;6.13;;
3683;SDS011;1858;48.716;9.648;2023-07-02T10:59:47;11.77;;;6.20;;
3683;SDS011;1858;48.716;9.648;2023-07-02T11:02:15;13.73;;;6.27;;
3683;SDS011;1858;48.716;9.648;2023-07-02T11:04:44;15.33;;;7.43;;
3683;SDS011;1858;48.716;9.648;2023-07-02T11:07:13;14.77;;;7.87;;
3683;SDS011;1858;48.716;9.648;2023-07-02T11:09:49;15.60;;;6.40;;
3683;SDS011;1858;48.716;9.648;2023-07-02T11:18:14;13.23;;;6.83;;
3683;SDS011;1858;48.716;9.648;2023-07-02T11:20:43;12.47;;;5.93;;
3683;SDS011;1858;48.716;9.648;2023-07-02T11:23:19;13.60;;;7.00;;
3683;SDS011;1858;48.716;9.648;2023-07-02T11:26:08;12.70;;;7.17;;
3683;SDS011;1858;48.716;9.648;2023-07-02T11:28:46;17.80;;;7.73;;
3683;SDS011;1858;48.716;9.648;2023-07-02T11:31:08;12.13;;;7.07;;
3683;SDS011;1858;48.716;9.648;2023-07-02T11:33:37;15.80;;;7.50;;
3683;SDS011;1858;48.716;9.648;2023-07-02T11:36:07;17.40;;;8.20;;
3683;SDS011;1858;48.716;9.648;2023-07-02T11:38:37;12.97;;;7.60;;
3683;SDS011;1858;48.716;9.648;2023-07-02T11:41:06;15.90;;;6.87;;
3683;SDS011;1858;48.716;9.648;2023-07-02T11:43:34;18.10;;;7.43;;
3683;SDS011;1858;48.716;9.648;2023-07-02T11:46:03;13.53;;;7.30;;
3683;SDS011;1858;48.716;9.648;2023-07-02T11:48:31;17.17;;;7.90;;
3683;SDS011;1858;48.716;9.648;2023-07-02T11:51:00;14.43;;;6.93;;
3683;SDS011;1858;48.716;9.648;2023-07-02T11:53:28;13.93;;;8.83;;
3683;SDS011;1858;48.716;9.648;2023-07-02T11:55:57;11.70;;;6.50;;
3683;SDS011;1858;48.716;9.648;2023-07-02T11:58:25;14.70;;;6.33;;
3683;SDS011;1858;48.716;9.648;2023-07-02T12:00:53;12.90;;;7.10;;
3683;SDS011;1858;48.716;9.648;2023-07-02T12:03:22;12.17;;;6.90;;
3683;SDS011;1858;48.716;9.648;2023-07-02T12:05:50;11.27;;;6.10;;
3683;SDS011;1858;48.716;9.648;2023-07-02T12:08:19;12.10;;;5.77;;
3683;SDS011;1858;48.716;9.648;2023-07-02T12:10:47;12.17;;;6.17;;
3683;SDS011;1858;48.716;9.648;2023-07-02T12:13:16;11.87;;;6.70;;
3683;SDS011;1858;48.716;9.648;2023-07-02T12:15:44;13.20;;;6.03;;
3683;SDS011;1858;48.716;9.648;2023-07-02T12:18:14;9.80;;;5.80;;
3683;SDS011;1858;48.716;9.648;2023-07-02T12:20:42;17.60;;;6.20;;
3683;SDS011;1858;48.716;9.648;2023-07-02T12:23:11;10.67;;;6.00;;
3683;SDS011;1858;48.716;9.648;2023-07-02T12:25:40;13.03;;;6.33;;
3683;SDS011;1858;48.716;9.648;2023-07-02T12:28:08;11.40;;;5.47;;
3683;SDS011;1858;48.716;9.648;2023-07-02T12:30:36;12.00;;;5.87;;
3683;SDS011;1858;48.716;9.648;2023-07-02T12:33:05;13.50;;;6.80;;
3683;SDS011;1858;48.716;9.648;2023-07-02T12:35:33;8.77;;;5.20;;
3683;SDS011;1858;48.716;9.648;2023-07-02T12:38:02;8.90;;;5.33;;
3683;SDS011;1858;48.716;9.648;2023-07-02T12:43:18;10.97;;;6.30;;
3683;SDS011;1858;48.716;9.648;2023-07-02T12:45:46;10.23;;;5.80;;
3683;SDS011;1858;48.716;9.648;2023-07-02T12:48:15;12.47;;;6.83;;
3683;SDS011;1858;48.716;9.648;2023-07-02T12:50:52;13.67;;;7.07;;
3683;SDS011;1858;48.716;9.648;2023-07-02T12:53:33;10.73;;;5.87;;
3683;SDS011;1858;48.716;9.648;2023-07-02T12:56:01;11.30;;;6.70;;
3683;SDS011;1858;48.716;9.648;2023-07-02T12:58:30;11.23;;;6.47;;
3683;SDS011;1858;48.716;9.648;2023-07-02T13:00:58;9.83;;;5.90;;
3683;SDS011;1858;48.716;9.648;2023-07-02T13:03:29;13.73;;;5.83;;
3683;SDS011;1858;48.716;9.648;2023-07-02T13:05:57;9.20;;;5.40;;
3683;SDS011;1858;48.716;9.648;2023-07-02T13:08:26;13.80;;;6.80;;
3683;SDS011;1858;48.716;9.648;2023-07-02T13:10:54;12.37;;;5.70;;
3683;SDS011;1858;48.716;9.648;2023-07-02T13:13:22;13.23;;;6.10;;
3683;SDS011;1858;48.716;9.648;2023-07-02T13:15:51;9.70;;;5.93;;
3683;SDS011;1858;48.716;9.648;2023-07-02T13:18:19;10.07;;;6.17;;
3683;SDS011;1858;48.716;9.648;2023-07-02T13:20:47;10.10;;;6.07;;
3683;SDS011;1858;48.716;9.648;2023-07-02T13:23:16;8.27;;;4.57;;
3683;SDS011;1858;48.716;9.648;2023-07-02T13:25:45;14.60;;;7.00;;
3683;SDS011;1858;48.716;9.648;2023-07-02T13:28:13;12.07;;;6.20;;
3683;SDS011;1858;48.716;9.648;2023-07-02T13:30:43;10.30;;;4.93;;
3683;SDS011;1858;48.716;9.648;2023-07-02T13:33:11;13.37;;;6.63;;
3683;SDS011;1858;48.716;9.648;2023-07-02T13:35:40;11.87;;;6.33;;
3683;SDS011;1858;48.716;9.648;2023-07-02T13:38:10;10.13;;;5.57;;
3683;SDS011;1858;48.716;9.648;2023-07-02T13:40:38;15.50;;;6.40;;
3683;SDS011;1858;48.716;9.648;2023-07-02T13:43:06;12.37;;;5.30;;
3683;SDS011;1858;48.716;9.648;2023-07-02T13:45:35;10.63;;;6.07;;
3683;SDS011;1858;48.716;9.648;2023-07-02T13:48:03;11.70;;;5.63;;
3683;SDS011;1858;48.716;9.648;2023-07-02T13:50:32;9.83;;;6.40;;
3683;SDS011;1858;48.716;9.648;2023-07-02T13:53:00;13.10;;;5.53;;
3683;SDS011;1858;48.716;9.648;2023-07-02T13:55:29;13.63;;;5.57;;
3683;SDS011;1858;48.716;9.648;2023-07-02T13:57:57;15.50;;;6.20;;
3683;SDS011;1858;48.716;9.648;2023-07-02T14:00:27;10.63;;;5.50;;
3683;SDS011;1858;48.716;9.648;2023-07-02T14:02:55;11.40;;;5.47;;
3683;SDS011;1858;48.716;9.648;2023-07-02T14:05:24;13.60;;;6.03;;
3683;SDS011;1858;48.716;9.648;2023-07-02T14:07:52;9.17;;;5.50;;
3683;SDS011;1858;48.716;9.648;2023-07-02T14:10:21;8.13;;;4.80;;
3683;SDS011;1858;48.716;9.648;2023-07-02T14:12:49;8.83;;;5.00;;
3683;SDS011;1858;48.716;9.648;2023-07-02T14:15:19;10.37;;;5.70;;
3683;SDS011;1858;48.716;9.648;2023-07-02T14:17:49;11.57;;;5.77;;
3683;SDS011;1858;48.716;9.648;2023-07-02T14:20:18;10.50;;;5.70;;
3683;SDS011;1858;48.716;9.648;2023-07-02T14:22:46;11.90;;;5.70;;
3683;SDS011;1858;48.716;9.648;2023-07-02T14:25:15;7.37;;;4.57;;
3683;SDS011;1858;48.716;9.648;2023-07-02T14:27:43;12.23;;;6.00;;
3683;SDS011;1858;48.716;9.648;2023-07-02T14:30:12;14.53;;;5.80;;
3683;SDS011;1858;48.716;9.648;2023-07-02T14:32:40;16.20;;;5.57;;
3683;SDS011;1858;48.716;9.648;2023-07-02T14:35:10;12.77;;;7.23;;
3683;SDS011;1858;48.716;9.648;2023-07-02T14:37:39;10.90;;;6.37;;
3683;SDS011;1858;48.716;9.648;2023-07-02T14:40:07;10.30;;;5.93;;
3683;SDS011;1858;48.716;9.648;2023-07-02T14:42:36;12.17;;;5.87;;
3683;SDS011;1858;48.716;9.648;2023-07-02T14:45:05;12.43;;;5.03;;
3683;SDS011;1858;48.716;9.648;2023-07-02T14:47:35;9.60;;;5.40;;
3683;SDS011;1858;48.716;9.648;2023-07-02T14:50:06;8.53;;;5.50;;
3683;SDS011;1858;48.716;9.648;2023-07-02T14:53:14;8.80;;;5.97;;
3683;SDS011;1858;48.716;9.648;2023-07-02T14:55:44;10.87;;;6.03;;
3683;SDS011;1858;48.716;9.648;2023-07-02T14:58:15;12.23;;;4.60;;
3683;SDS011;1858;48.716;9.648;2023-07-02T15:03:32;14.63;;;5.73;;
3683;SDS011;1858;48.716;9.648;2023-07-02T15:06:07;9.30;;;5.00;;
3683;SDS011;1858;48.716;9.648;2023-07-02T15:08:38;9.93;;;6.23;;
3683;SDS011;1858;48.716;9.648;2023-07-02T15:11:07;9.70;;;5.77;;
3683;SDS011;1858;48.716;9.648;2023-07-02T15:13:56;9.80;;;5.83;;
3683;SDS011;1858;48.716;9.648;2023-07-02T15:16:25;8.53;;;5.40;;
3683;SDS011;1858;48.716;9.648;2023-07-02T15:18:54;8.73;;;4.93;;
3683;SDS011;1858;48.716;9.648;2023-07-02T15:21:22;9.60;;;6.00;;
3683;SDS011;1858;48.716;9.648;2023-07-02T15:23:51;11.37;;;6.37;;
3683;SDS011;1858;48.716;9.648;2023-07-02T15:26:19;10.50;;;6.70;;
3683;SDS011;1858;48.716;9.648;2023-07-02T15:28:48;12.23;;;6.93;;
3683;SDS011;1858;48.716;9.648;2023-07-02T15:31:16;11.73;;;6.57;;
3683;SDS011;1858;48.716;9.648;2023-07-02T15:33:45;11.50;;;5.93;;
3683;SDS011;1858;48.716;9.648;2023-07-02T15:36:13;9.50;;;5.97;;
3683;SDS011;1858;48.716;9.648;2023-07-02T15:38:42;10.40;;;5.80;;
3683;SDS011;1858;48.716;9.648;2023-07-02T15:41:14;10.50;;;6.63;;
3683;SDS011;1858;48.716;9.648;2023-07-02T15:43:44;13.40;;;5.40;;
3683;SDS011;1858;48.716;9.648;2023-07-02T15:46:14;12.17;;;6.63;;
3683;SDS011;1858;48.716;9.648;2023-07-02T15:48:44;11.20;;;5.67;;
3683;SDS011;1858;48.716;9.648;2023-07-02T15:51:12;16.23;;;7.47;;
3683;SDS011;1858;48.716;9.648;2023-07-02T15:53:41;9.50;;;6.20;;
3683;SDS011;1858;48.716;9.648;2023-07-02T15:56:10;8.37;;;5.17;;
3683;SDS011;1858;48.716;9.648;2023-07-02T15:58:38;13.60;;;6.07;;
3683;SDS011;1858;48.716;9.648;2023-07-02T16:01:11;9.03;;;5.67;;
3683;SDS011;1858;48.716;9.648;2023-07-02T16:04:03;10.60;;;6.23;;
3683;SDS011;1858;48.716;9.648;2023-07-02T16:06:34;13.13;;;6.30;;
3683;SDS011;1858;48.716;9.648;2023-07-02T16:09:03;11.97;;;7.20;;
3683;SDS011;1858;48.716;9.648;2023-07-02T16:11:34;16.53;;;7.73;;